Time;durP1;ratioP1;P1;durP2;ratioP2;P2;SDS_P1;SDS_P2;PMS_P1;PMS_P2;Temp;Humidity;BMP_temperature;BMP_pressure;BME280_temperature;BME280_humidity;BME280_pressure;Samples;Min_cycle;Max_cycle;Signal;HPM_P1;HPM_P2
2022/11/02 00:01:36;;;;;;;2.85;1.48;;;;;;;19.15;54.14;101377.41;4844355;29;20095;-53
2022/11/02 00:04:03;;;;;;;4.63;1.40;;;;;;;19.15;53.96;101375.56;4843879;29;20133;-53
2022/11/02 00:06:29;;;;;;;4.35;1.40;;;;;;;19.14;54.23;101381.94;4844854;29;20450;-53
2022/11/02 00:08:56;;;;;;;4.05;1.80;;;;;;;19.14;54.11;101376.56;4839720;29;20061;-54
2022/11/02 00:11:22;;;;;;;4.65;1.30;;;;;;;19.12;53.69;101364.25;4843519;29;20042;-55
2022/11/02 00:13:49;;;;;;;2.53;1.05;;;;;;;19.11;54.14;101371.47;4839817;29;20061;-52
2022/11/02 00:16:18;;;;;;;2.88;1.63;;;;;;;19.11;54.28;101370.63;4841653;29;20065;-54
2022/11/02 00:18:47;;;;;;;4.43;1.65;;;;;;;19.12;54.11;101375.00;4842458;29;20368;-54
2022/11/02 00:21:16;;;;;;;4.28;1.83;;;;;;;19.10;54.14;101364.41;4841810;29;20051;-51
2022/11/02 00:23:44;;;;;;;3.55;1.30;;;;;;;19.10;54.29;101375.16;4841100;29;20061;-54
2022/11/02 00:26:11;;;;;;;5.72;1.63;;;;;;;19.09;54.24;101372.59;4843823;29;20141;-54
2022/11/02 00:28:37;;;;;;;2.42;1.13;;;;;;;19.08;54.35;101377.13;4847187;29;20311;-52
2022/11/02 00:31:04;;;;;;;3.03;1.20;;;;;;;19.10;53.92;101385.06;4845851;29;20486;-53
2022/11/02 00:33:31;;;;;;;4.82;1.63;;;;;;;19.08;53.97;101382.50;4844991;29;20046;-53
2022/11/02 00:35:57;;;;;;;3.92;1.27;;;;;;;19.07;54.15;101388.88;4844282;29;20486;-53
2022/11/02 00:38:24;;;;;;;3.85;1.40;;;;;;;19.08;54.20;101376.28;4841264;29;20054;-50
2022/11/02 00:40:50;;;;;;;6.28;1.77;;;;;;;19.07;54.21;101388.03;4846187;29;20057;-51
2022/11/02 00:43:17;;;;;;;4.55;1.40;;;;;;;19.07;54.03;101391.56;4841951;29;20054;-53
2022/11/02 00:45:43;;;;;;;4.05;1.35;;;;;;;19.07;53.85;101405.00;4840683;29;20053;-51
2022/11/02 00:48:10;;;;;;;1.98;0.90;;;;;;;19.06;54.42;101411.38;4843894;29;20430;-53
2022/11/02 00:50:36;;;;;;;4.78;1.70;;;;;;;19.08;54.09;101421.97;4839972;29;20328;-51
2022/11/02 00:53:03;;;;;;;3.35;1.25;;;;;;;19.06;54.16;101400.63;4844671;29;20050;-55
2022/11/02 00:55:29;;;;;;;3.10;1.63;;;;;;;19.05;54.46;101388.16;4843970;29;20053;-53
2022/11/02 00:57:56;;;;;;;1.75;1.20;;;;;;;19.06;53.94;101394.41;4840805;29;20053;-53
2022/11/02 01:00:23;;;;;;;2.95;1.20;;;;;;;19.04;54.18;101405.28;4842603;29;20041;-55
2022/11/02 01:02:49;;;;;;;3.13;1.65;;;;;;;19.03;53.96;101395.53;4835201;29;20065;-51
2022/11/02 01:05:17;;;;;;;3.53;1.17;;;;;;;19.02;54.23;101388.50;4843819;29;20133;-53
2022/11/02 01:07:43;;;;;;;4.07;1.58;;;;;;;19.00;53.62;101382.41;4843278;29;20108;-54
2022/11/02 01:10:10;;;;;;;3.75;1.30;;;;;;;19.01;53.78;101380.56;4848146;29;20049;-54
2022/11/02 01:12:38;;;;;;;3.85;1.30;;;;;;;19.00;53.55;101385.09;4840289;29;20069;-54
2022/11/02 01:15:09;;;;;;;4.43;1.08;;;;;;;18.98;54.12;101389.78;4840915;29;20069;-54
2022/11/02 01:17:36;;;;;;;2.40;0.82;;;;;;;18.96;54.33;101381.84;4844311;29;20057;-54
2022/11/02 01:20:04;;;;;;;4.70;1.02;;;;;;;18.95;53.31;101388.22;4841715;29;20050;-53
2022/11/02 01:22:31;;;;;;;4.72;1.45;;;;;;;18.95;53.45;101385.53;4840113;29;20065;-52
2022/11/02 01:24:57;;;;;;;3.25;0.90;;;;;;;18.93;53.46;101379.44;4842986;29;20053;-53
2022/11/02 01:27:24;;;;;;;5.47;1.55;;;;;;;18.91;53.46;101369.84;4838590;29;20052;-52
2022/11/02 01:29:50;;;;;;;5.40;1.60;;;;;;;18.90;53.70;101390.50;4838054;29;20407;-51
2022/11/02 01:32:17;;;;;;;3.88;1.10;;;;;;;18.89;53.54;101377.19;4840216;29;20046;-54
2022/11/02 01:34:43;;;;;;;3.33;1.20;;;;;;;18.89;53.17;101377.19;4842377;29;20350;-53
2022/11/02 01:37:10;;;;;;;6.53;1.02;;;;;;;18.87;53.51;101385.41;4841097;29;20054;-53
2022/11/02 01:39:36;;;;;;;4.57;0.93;;;;;;;18.86;52.74;101380.19;4845597;29;20434;-53
2022/11/02 01:42:03;;;;;;;5.30;1.58;;;;;;;18.86;53.36;101385.56;4842277;29;20050;-53
2022/11/02 01:44:32;;;;;;;4.80;1.25;;;;;;;18.85;53.12;101375.78;4842867;29;20080;-52
2022/11/02 01:47:04;;;;;;;2.03;0.95;;;;;;;18.85;53.45;101381.16;4849359;29;20048;-53
2022/11/02 01:49:34;;;;;;;3.75;1.00;;;;;;;18.84;53.73;101376.81;4841704;29;20057;-52
2022/11/02 01:52:10;;;;;;;2.80;0.70;;;;;;;18.82;53.35;101387.69;4846372;29;20058;-52
2022/11/02 01:55:02;;;;;;;1.30;0.80;;;;;;;18.82;52.82;101393.06;4839648;29;20319;-54
2022/11/02 01:57:32;;;;;;;2.67;0.90;;;;;;;18.80;53.31;101384.28;4842945;29;20057;-53
2022/11/02 02:00:08;;;;;;;2.42;1.10;;;;;;;18.79;53.15;101387.97;4841088;29;20053;-53
2022/11/02 02:02:41;;;;;;;5.00;1.20;;;;;;;18.79;53.12;101379.94;4836776;29;20061;-54
2022/11/02 02:05:10;;;;;;;4.20;1.13;;;;;;;18.76;52.70;101366.78;4839077;29;20106;-53
2022/11/02 02:07:38;;;;;;;7.35;1.27;;;;;;;18.77;53.34;101378.38;4839353;29;20049;-52
2022/11/02 02:10:06;;;;;;;3.42;0.85;;;;;;;18.76;53.07;101382.06;4842247;29;20438;-52
2022/11/02 02:12:36;;;;;;;4.55;1.00;;;;;;;18.74;52.82;101372.31;4838525;29;20041;-53
2022/11/02 02:15:03;;;;;;;3.40;0.95;;;;;;;18.72;53.24;101368.91;4840042;29;20113;-53
2022/11/02 02:17:38;;;;;;;2.55;0.80;;;;;;;18.71;52.75;101388.69;4841962;29;20106;-53
2022/11/02 02:20:35;;;;;;;2.75;1.10;;;;;;;18.69;52.74;101381.75;4841892;29;20049;-54
2022/11/02 02:23:26;;;;;;;3.70;0.90;;;;;;;18.68;53.07;101388.13;4843096;29;20465;-54
2022/11/02 02:26:14;;;;;;;2.80;0.80;;;;;;;18.70;53.07;101403.13;4842718;29;20066;-53
2022/11/02 02:28:50;;;;;;;2.10;1.00;;;;;;;18.68;52.70;101394.31;4842051;29;20050;-54
2022/11/02 02:31:26;;;;;;;4.95;1.08;;;;;;;18.67;52.50;101387.28;4839088;29;20057;-52
2022/11/02 02:34:17;;;;;;;5.53;1.67;;;;;;;18.65;52.76;101386.59;4843290;29;20343;-51
2022/11/02 02:36:50;;;;;;;2.38;1.25;;;;;;;18.66;53.03;101388.28;4842723;29;20434;-51
2022/11/02 02:39:20;;;;;;;3.55;1.00;;;;;;;18.66;52.97;101380.22;4840800;29;20404;-52
2022/11/02 02:41:57;;;;;;;5.03;1.45;;;;;;;18.64;53.00;101374.13;4836329;29;20053;-53
2022/11/02 02:44:28;;;;;;;4.15;1.35;;;;;;;18.64;52.98;101363.38;4839958;29;20434;-51
2022/11/02 02:47:03;;;;;;;4.63;1.00;;;;;;;18.62;52.84;101365.38;4841530;29;20054;-53
2022/11/02 02:49:52;;;;;;;6.15;1.23;;;;;;;18.62;52.78;101359.16;4836866;29;20663;-53
2022/11/02 02:52:20;;;;;;;3.40;1.17;;;;;;;18.63;52.67;101364.38;4841665;29;20041;-53
2022/11/02 02:54:50;;;;;;;4.47;1.02;;;;;;;18.62;52.94;101365.38;4839732;29;20057;-53
2022/11/02 02:57:21;;;;;;;2.45;0.80;;;;;;;18.62;52.72;101370.75;4833713;29;20047;-53
2022/11/02 02:59:48;;;;;;;3.80;1.02;;;;;;;18.60;52.80;101377.25;4840742;29;20058;-52
2022/11/02 03:02:26;;;;;;;2.58;0.90;;;;;;;18.59;53.09;101379.09;4842317;29;20050;-51
2022/11/02 03:04:52;;;;;;;2.38;1.08;;;;;;;18.59;53.04;101380.94;4842239;29;20133;-52
2022/11/02 03:07:26;;;;;;;5.63;0.98;;;;;;;18.58;52.95;101385.47;4842649;29;20046;-55
2022/11/02 03:10:12;;;;;;;3.60;1.42;;;;;;;18.60;52.47;101374.56;4843532;29;20378;-51
2022/11/02 03:12:50;;;;;;;4.68;1.17;;;;;;;18.60;52.77;101380.78;4830090;29;20050;-52
2022/11/02 03:15:16;;;;;;;3.20;1.15;;;;;;;18.61;52.72;101370.88;4838634;29;20057;-53
2022/11/02 03:18:07;;;;;;;3.67;1.20;;;;;;;18.58;53.03;101379.25;4832596;29;20074;-50
2022/11/02 03:21:26;;;;;;;4.80;1.13;;;;;;;18.58;52.91;101376.56;4840133;29;20058;-54
2022/11/02 03:23:58;;;;;;;5.70;1.90;;;;;;;18.58;53.39;101382.78;4815466;29;20050;-50
2022/11/02 03:26:31;;;;;;;2.88;1.15;;;;;;;18.57;52.67;101385.59;4841803;29;20055;-53
2022/11/02 03:29:07;;;;;;;5.78;1.55;;;;;;;18.56;52.82;101383.91;4843823;29;20057;-52
2022/11/02 03:32:09;;;;;;;4.05;1.00;;;;;;;18.53;52.85;101385.03;4837253;29;20556;-53
2022/11/02 03:34:45;;;;;;;5.25;1.50;;;;;;;18.55;52.56;101390.25;4842826;29;20331;-53
2022/11/02 03:37:28;;;;;;;3.70;1.25;;;;;;;18.53;52.94;101398.44;4842473;29;20046;-53
2022/11/02 03:40:05;;;;;;;6.88;1.75;;;;;;;18.54;53.09;101399.31;4845208;29;20062;-54
2022/11/02 03:42:33;;;;;;;5.93;1.30;;;;;;;18.53;52.64;101406.50;4843461;29;20050;-53
2022/11/02 03:45:06;;;;;;;6.38;1.27;;;;;;;18.54;52.70;101410.06;4838299;29;20465;-51
2022/11/02 03:47:35;;;;;;;7.13;2.03;;;;;;;18.53;53.09;101409.19;4836626;29;20400;-53
2022/11/02 03:50:04;;;;;;;9.13;1.48;;;;;;;18.53;53.19;101408.34;4839678;29;20049;-54
2022/11/02 03:52:35;;;;;;;3.63;1.30;;;;;;;18.53;53.03;101414.53;4839064;29;20339;-53
2022/11/02 03:55:19;;;;;;;3.78;1.50;;;;;;;18.53;53.27;101413.69;4840792;29;20050;-53
2022/11/02 03:57:48;;;;;;;8.20;1.58;;;;;;;18.52;53.06;101412.03;4837994;29;20053;-53
2022/11/02 04:00:28;;;;;;;4.57;1.63;;;;;;;18.51;53.01;101419.22;4837739;29;20053;-51
2022/11/02 04:02:58;;;;;;;3.85;1.23;;;;;;;18.52;53.05;101425.44;4841888;29;20058;-52
2022/11/02 04:05:30;;;;;;;6.45;1.80;;;;;;;18.50;53.39;101425.59;4843879;29;20240;-53
2022/11/02 04:16:14;;;;;;;5.57;1.70;;;;;;;18.45;53.37;101455.56;4849535;29;20050;-53
2022/11/02 04:21:27;;;;;;;8.30;1.35;;;;;;;18.44;53.48;101469.09;4843072;29;20057;-52
2022/11/02 04:26:39;;;;;;;7.95;1.50;;;;;;;18.44;53.35;101490.56;4842059;29;20054;-50
2022/11/02 04:29:06;;;;;;;5.85;2.05;;;;;;;18.44;53.63;101495.94;4841731;29;20058;-52
2022/11/02 04:31:32;;;;;;;7.63;1.70;;;;;;;18.43;53.37;101507.66;4840158;29;20065;-53
2022/11/02 04:33:59;;;;;;;7.55;2.10;;;;;;;18.44;53.60;101514.72;4841900;29;20131;-53
2022/11/02 04:36:28;;;;;;;13.82;2.20;;;;;;;18.43;53.94;101521.94;4842022;29;20046;-53
2022/11/02 04:38:55;;;;;;;14.48;2.40;;;;;;;18.44;53.44;101512.03;4841101;29;20062;-52
2022/11/02 04:41:41;;;;;;;8.70;1.52;;;;;;;18.43;53.72;101521.09;4844157;29;20464;-53
2022/11/02 04:44:10;;;;;;;6.32;1.73;;;;;;;18.44;53.92;101526.31;4843165;29;20049;-54
2022/11/02 04:46:38;;;;;;;7.13;1.75;;;;;;;18.43;53.50;101540.72;4843288;29;20056;-53
2022/11/02 04:49:04;;;;;;;5.70;1.50;;;;;;;18.42;53.57;101538.19;4840799;29;20314;-50
2022/11/02 04:51:31;;;;;;;9.60;1.25;;;;;;;18.41;53.33;101541.84;4848068;29;20069;-52
2022/11/02 04:53:58;;;;;;;8.43;1.70;;;;;;;18.41;53.36;101545.41;4848808;29;20269;-53
2022/11/02 04:56:26;;;;;;;5.00;1.50;;;;;;;18.42;53.34;101556.97;4841767;29;20253;-52
2022/11/02 04:58:55;;;;;;;6.28;1.63;;;;;;;18.42;53.37;101560.50;4844975;29;20058;-53
2022/11/02 05:01:24;;;;;;;4.38;1.58;;;;;;;18.41;53.59;101558.81;4838957;29;20050;-49
2022/11/02 05:03:51;;;;;;;8.77;2.40;;;;;;;18.42;53.52;101563.19;4827474;29;20057;-51
2022/11/02 05:06:19;;;;;;;4.97;1.73;;;;;;;18.42;53.75;101575.78;4836360;29;20536;-52
2022/11/02 05:08:46;;;;;;;6.97;1.67;;;;;;;18.42;53.35;101568.56;4838685;29;20078;-51
2022/11/02 05:11:13;;;;;;;5.22;1.60;;;;;;;18.41;53.41;101574.03;4840247;29;20069;-51
2022/11/02 05:13:40;;;;;;;5.20;1.60;;;;;;;18.42;53.72;101578.44;4838827;29;20267;-53
2022/11/02 05:16:11;;;;;;;7.40;1.48;;;;;;;18.41;53.66;101584.78;4841442;29;20069;-54
2022/11/02 05:18:38;;;;;;;5.93;1.40;;;;;;;18.42;53.45;101590.03;4837496;29;20068;-53
2022/11/02 05:21:05;;;;;;;9.20;2.17;;;;;;;18.41;53.79;101593.72;4838569;29;20054;-51
2022/11/02 05:23:31;;;;;;;7.82;1.75;;;;;;;18.41;53.80;101599.09;4838262;29;20304;-50
2022/11/02 05:26:00;;;;;;;6.50;1.55;;;;;;;18.43;53.35;101593.56;4843564;29;20050;-50
2022/11/02 05:28:28;;;;;;;5.88;1.77;;;;;;;18.42;53.82;101597.25;4846373;29;20054;-52
2022/11/02 05:30:58;;;;;;;8.73;2.40;;;;;;;18.42;53.55;101607.97;4843376;29;20069;-54
2022/11/02 05:33:24;;;;;;;7.65;1.63;;;;;;;18.41;53.65;101611.63;4841891;29;20052;-53
2022/11/02 05:35:57;;;;;;;8.20;2.10;;;;;;;18.42;53.68;101613.34;4844703;29;20054;-53
2022/11/02 05:38:25;;;;;;;6.97;1.65;;;;;;;18.40;53.44;101624.19;4841766;29;20054;-50
2022/11/02 05:40:56;;;;;;;5.75;1.30;;;;;;;18.41;53.88;101627.72;4819891;29;20069;-53
2022/11/02 05:43:23;;;;;;;5.53;1.67;;;;;;;18.40;53.37;101629.56;4832835;29;20049;-53
2022/11/02 05:45:54;;;;;;;5.35;1.38;;;;;;;18.40;53.68;101626.88;4831428;29;20058;-54
2022/11/02 05:48:22;;;;;;;8.00;1.80;;;;;;;18.40;53.55;101637.63;4839648;29;20058;-51
2022/11/02 05:50:54;;;;;;;7.13;1.95;;;;;;;18.41;54.00;101638.47;4839535;29;20395;-49
2022/11/02 05:53:21;;;;;;;10.60;2.15;;;;;;;18.41;53.53;101643.84;4840856;29;20050;-52
2022/11/02 05:55:47;;;;;;;8.80;1.58;;;;;;;18.40;53.93;101652.88;4838555;29;20054;-52
2022/11/02 05:58:14;;;;;;;5.07;1.70;;;;;;;18.40;53.93;101650.19;4830465;29;20387;-54
2022/11/02 06:00:40;;;;;;;9.30;2.05;;;;;;;18.40;53.70;101656.41;4842220;29;20169;-50
2022/11/02 06:03:07;;;;;;;5.18;1.90;;;;;;;18.40;53.67;101671.66;4841097;29;20042;-51
2022/11/02 06:05:33;;;;;;;5.75;1.80;;;;;;;18.41;53.74;101673.34;4841255;29;20355;-52
2022/11/02 06:08:01;;;;;;;8.98;2.85;;;;;;;18.41;54.23;101682.28;4839498;29;20064;-50
2022/11/02 06:10:28;;;;;;;5.53;1.52;;;;;;;18.42;53.67;101685.81;4844919;29;20054;-51
2022/11/02 06:13:00;;;;;;;5.72;1.70;;;;;;;18.43;54.17;101692.88;4841787;29;20058;-53
2022/11/02 06:15:29;;;;;;;5.93;1.60;;;;;;;18.42;53.94;101701.94;4840654;29;20508;-50
2022/11/02 06:17:56;;;;;;;7.80;2.25;;;;;;;18.41;53.89;101695.72;4842189;29;20050;-53
2022/11/02 06:20:23;;;;;;;5.63;1.95;;;;;;;18.42;54.13;101699.25;4839543;29;20068;-52
2022/11/02 06:22:49;;;;;;;6.72;2.25;;;;;;;18.41;53.92;101703.75;4838721;29;20050;-51
2022/11/02 06:25:16;;;;;;;5.72;2.33;;;;;;;18.43;54.02;101714.34;4839313;29;20046;-50
2022/11/02 06:27:51;;;;;;;7.72;2.40;;;;;;;18.44;54.43;101727.63;4845118;29;20057;-49
2022/11/02 06:30:17;;;;;;;9.32;2.50;;;;;;;18.42;54.26;101724.25;4841295;29;20054;-53
2022/11/02 06:32:48;;;;;;;6.85;2.35;;;;;;;18.43;54.55;101735.81;4836812;29;20042;-52
2022/11/02 06:35:16;;;;;;;5.18;2.30;;;;;;;18.43;54.42;101741.19;4845497;29;20120;-50
2022/11/02 06:37:46;;;;;;;9.52;2.58;;;;;;;18.43;53.95;101742.03;4840467;29;20057;-53
2022/11/02 06:40:14;;;;;;;7.18;2.42;;;;;;;18.43;54.52;101747.41;4848782;29;20461;-53
2022/11/02 06:42:40;;;;;;;6.03;2.33;;;;;;;18.44;54.51;101750.94;4838065;29;20050;-49
2022/11/02 06:45:22;;;;;;;7.00;2.50;;;;;;;18.44;54.71;101759.84;4835541;29;20433;-50
2022/11/02 06:47:49;;;;;;;6.38;2.65;;;;;;;18.44;54.20;101775.94;4823629;29;20434;-53
2022/11/02 06:50:16;;;;;;;7.63;2.78;;;;;;;18.44;54.53;101786.69;4831660;29;20346;-53
2022/11/02 06:52:45;;;;;;;6.30;2.90;;;;;;;18.44;54.89;101797.41;4835919;29;20050;-53
2022/11/02 06:55:13;;;;;;;6.28;2.72;;;;;;;18.44;54.45;101797.41;4840080;29;20259;-53
2022/11/02 06:57:40;;;;;;;7.55;3.47;;;;;;;18.46;54.79;101802.69;4836343;29;20060;-50
2022/11/02 07:00:11;;;;;;;6.13;2.47;;;;;;;18.45;54.93;101809.00;4839233;29;20404;-51
2022/11/02 07:02:44;;;;;;;7.57;3.00;;;;;;;18.45;54.59;101823.31;4837167;29;20486;-53
2022/11/02 07:05:11;;;;;;;5.93;2.20;;;;;;;18.46;54.79;101829.53;4841702;29;20058;-52
2022/11/02 07:07:38;;;;;;;4.88;2.50;;;;;;;18.46;54.81;101837.56;4840042;29;20050;-52
2022/11/02 07:10:07;;;;;;;6.43;2.83;;;;;;;18.47;54.82;101847.31;4836760;29;20065;-52
2022/11/02 07:12:34;;;;;;;6.82;3.03;;;;;;;18.47;54.83;101853.53;4841350;29;20472;-53
2022/11/02 07:15:00;;;;;;;5.40;2.63;;;;;;;18.48;54.96;101854.38;4836703;29;20058;-53
2022/11/02 07:17:27;;;;;;;5.70;2.67;;;;;;;18.48;54.66;101851.69;4841761;29;20062;-52
2022/11/02 07:19:57;;;;;;;5.30;2.45;;;;;;;18.48;55.19;101863.28;4841700;29;20062;-53
2022/11/02 07:22:24;;;;;;;7.20;3.03;;;;;;;18.50;55.16;101871.22;4840457;29;20257;-52
2022/11/02 07:24:51;;;;;;;10.07;3.28;;;;;;;18.49;54.99;101870.38;4841976;29;20134;-53
2022/11/02 07:27:19;;;;;;;7.60;2.88;;;;;;;18.49;55.58;101874.88;4842111;29;20050;-53
2022/11/02 07:29:46;;;;;;;7.47;2.83;;;;;;;18.50;55.36;101879.28;4839315;29;20347;-53
2022/11/02 07:32:13;;;;;;;6.05;3.38;;;;;;;18.50;55.11;101884.66;4839952;29;20058;-50
2022/11/02 07:34:40;;;;;;;6.88;2.85;;;;;;;18.49;54.96;101886.47;4840276;29;20051;-53
2022/11/02 07:37:06;;;;;;;6.05;2.78;;;;;;;18.51;54.89;101889.03;4840732;29;20054;-52
2022/11/02 07:39:33;;;;;;;5.22;2.50;;;;;;;18.50;55.14;101892.69;4842441;29;20358;-52
2022/11/02 07:42:00;;;;;;;7.15;2.60;;;;;;;18.53;55.63;101899.63;4840887;29;20062;-52
2022/11/02 07:44:26;;;;;;;6.43;3.15;;;;;;;18.51;55.36;101897.09;4846182;29;20058;-51
2022/11/02 07:46:53;;;;;;;6.25;3.00;;;;;;;18.51;55.25;101902.44;4840621;29;20061;-52
2022/11/02 07:49:19;;;;;;;7.70;2.95;;;;;;;18.52;55.24;101906.81;4841222;29;20062;-53
2022/11/02 07:51:47;;;;;;;5.65;3.30;;;;;;;18.52;55.58;101905.97;4843467;29;20384;-53
2022/11/02 07:54:14;;;;;;;5.95;3.03;;;;;;;18.53;55.57;101915.72;4839025;29;20050;-51
2022/11/02 07:56:40;;;;;;;5.15;2.60;;;;;;;18.53;55.61;101908.53;4843446;29;20249;-52
2022/11/02 07:59:09;;;;;;;5.20;3.00;;;;;;;18.54;55.37;101925.50;4844577;29;20442;-52
2022/11/02 08:01:35;;;;;;;5.70;2.53;;;;;;;18.55;55.39;101930.75;4846517;29;20236;-51
2022/11/02 08:04:02;;;;;;;6.07;2.60;;;;;;;18.56;55.25;101920.84;4842024;29;20415;-52
2022/11/02 08:06:29;;;;;;;6.15;3.13;;;;;;;18.58;55.36;101919.75;4843201;29;20461;-52
2022/11/02 08:08:55;;;;;;;5.07;2.78;;;;;;;18.60;55.51;101930.34;4842684;29;20069;-49
2022/11/02 08:11:22;;;;;;;6.78;2.80;;;;;;;18.62;55.55;101931.06;4843888;29;20062;-52
2022/11/02 08:13:48;;;;;;;6.40;2.83;;;;;;;18.62;55.81;101920.34;4845220;29;20062;-52
2022/11/02 08:16:15;;;;;;;5.40;2.72;;;;;;;18.64;55.75;101926.41;4838860;29;20065;-49
2022/11/02 08:18:41;;;;;;;5.72;2.67;;;;;;;18.64;55.83;101927.25;4841932;29;20062;-50
2022/11/02 08:21:08;;;;;;;6.55;2.70;;;;;;;18.66;55.42;101952.16;4846341;29;20438;-51
2022/11/02 08:23:34;;;;;;;6.65;2.72;;;;;;;18.67;55.43;101955.69;4845934;29;20054;-50
2022/11/02 08:26:01;;;;;;;6.38;2.60;;;;;;;18.68;55.50;101950.19;4838522;29;20072;-50
2022/11/02 08:28:31;;;;;;;7.78;3.08;;;;;;;18.68;55.34;101947.50;4838814;29;20441;-52
2022/11/02 08:30:58;;;;;;;6.13;2.83;;;;;;;18.69;55.32;101954.59;4839078;29;20111;-49
2022/11/02 08:33:24;;;;;;;5.28;2.42;;;;;;;18.70;55.16;101955.47;4840629;29;20050;-52
2022/11/02 08:35:52;;;;;;;5.75;2.63;;;;;;;18.72;54.84;101961.56;4847634;29;20054;-50
2022/11/02 08:38:22;;;;;;;6.25;2.15;;;;;;;18.72;55.12;101956.19;4840947;29;20137;-51
2022/11/02 08:40:49;;;;;;;3.67;1.80;;;;;;;18.73;55.23;101957.88;4843346;29;20058;-53
2022/11/02 08:43:15;;;;;;;4.57;2.20;;;;;;;18.74;55.00;101965.81;4841307;29;20372;-53
2022/11/02 08:45:44;;;;;;;4.75;2.08;;;;;;;18.76;55.25;101960.31;4839558;29;20054;-52
2022/11/02 08:48:31;;;;;;;4.93;2.30;;;;;;;18.78;54.85;101963.72;4840885;29;20050;-53
2022/11/02 08:50:57;;;;;;;8.15;2.78;;;;;;;18.79;54.79;101961.88;4842536;29;20066;-52
2022/11/02 08:53:24;;;;;;;7.63;2.85;;;;;;;18.80;54.72;101963.59;4841430;29;20355;-52
2022/11/02 08:55:50;;;;;;;3.67;1.95;;;;;;;18.81;54.89;101968.81;4834458;29;20153;-52
2022/11/02 08:58:17;;;;;;;5.32;2.10;;;;;;;18.82;55.29;101977.75;4842987;29;20045;-52
2022/11/02 09:00:44;;;;;;;6.82;2.38;;;;;;;18.83;54.74;101974.94;4841815;29;20087;-49
2022/11/02 09:03:12;;;;;;;6.28;2.13;;;;;;;18.85;55.11;101981.00;4843991;29;20049;-52
2022/11/02 09:05:42;;;;;;;7.57;2.90;;;;;;;18.87;54.84;101986.25;4845575;29;20049;-52
2022/11/02 09:08:19;;;;;;;4.53;2.63;;;;;;;18.88;54.46;101991.50;4841203;29;20164;-49
2022/11/02 09:10:49;;;;;;;4.38;2.05;;;;;;;18.90;55.06;101983.31;4841404;29;20066;-51
2022/11/02 09:13:20;;;;;;;6.50;2.30;;;;;;;18.93;54.67;101991.09;4840602;29;20102;-53
2022/11/02 09:15:50;;;;;;;4.70;2.15;;;;;;;18.95;55.06;101989.13;4842099;29;20058;-51
2022/11/02 09:18:16;;;;;;;7.07;2.17;;;;;;;18.97;54.91;101984.47;4843337;29;20050;-50
2022/11/02 09:20:43;;;;;;;5.03;2.08;;;;;;;18.99;54.20;101988.75;4845636;29;20061;-51
2022/11/02 09:23:09;;;;;;;5.07;1.92;;;;;;;19.03;54.25;102005.44;4840224;29;20057;-54
2022/11/02 09:25:36;;;;;;;3.83;1.80;;;;;;;19.08;54.98;101997.00;4842649;29;20053;-49
2022/11/02 09:28:02;;;;;;;4.47;1.67;;;;;;;19.12;54.58;102007.34;4842588;29;20375;-50
2022/11/02 09:30:29;;;;;;;5.05;2.10;;;;;;;19.16;54.36;102010.63;4841584;29;20392;-53
2022/11/02 09:33:02;;;;;;;5.53;2.03;;;;;;;19.20;55.14;102017.44;4842219;29;20050;-50
2022/11/02 09:35:31;;;;;;;3.97;1.80;;;;;;;19.25;54.89;102031.31;4838109;29;20049;-53
2022/11/02 09:37:58;;;;;;;4.53;1.83;;;;;;;19.31;55.03;102029.94;4840129;29;20068;-52
2022/11/02 09:40:28;;;;;;;4.57;1.88;;;;;;;19.35;55.20;102023.31;4840301;29;20385;-51
2022/11/02 09:43:19;;;;;;;5.07;1.80;;;;;;;19.39;54.64;102032.81;4845548;29;20046;-52
2022/11/02 09:45:56;;;;;;;3.85;1.58;;;;;;;19.44;55.07;102031.41;4836382;29;20445;-53
2022/11/02 09:48:51;;;;;;;5.43;1.70;;;;;;;19.48;55.27;102032.84;4844042;29;20544;-50
2022/11/02 09:51:41;;;;;;;3.35;1.83;;;;;;;19.53;55.15;102037.81;4827346;29;20404;-50
2022/11/02 09:54:29;;;;;;;7.05;1.98;;;;;;;19.57;54.98;102039.25;4843171;29;20041;-49
2022/11/02 09:57:10;;;;;;;3.90;1.70;;;;;;;19.61;55.03;102035.34;4838508;29;20066;-52
2022/11/02 09:59:37;;;;;;;4.10;1.67;;;;;;;19.64;55.04;102040.47;4841396;29;20061;-52
2022/11/02 10:02:29;;;;;;;3.60;1.88;;;;;;;19.65;54.97;102030.56;4837494;29;20141;-53
2022/11/02 10:05:38;;;;;;;5.03;1.90;;;;;;;19.69;55.20;102043.59;4840023;29;20433;-53
2022/11/02 10:08:30;;;;;;;4.15;1.70;;;;;;;19.71;54.96;102041.63;4841481;29;20062;-51
2022/11/02 10:11:24;;;;;;;8.35;2.33;;;;;;;19.76;55.12;102048.44;4836541;29;20061;-50
2022/11/02 10:13:58;;;;;;;8.25;2.25;;;;;;;19.79;54.69;102058.94;4834166;29;20149;-50
2022/11/02 10:16:38;;;;;;;7.25;2.38;;;;;;;19.80;55.27;102055.25;4839986;29;20061;-52
2022/11/02 10:19:12;;;;;;;7.55;2.55;;;;;;;19.82;55.03;102058.66;4846261;29;20056;-49
2022/11/02 10:21:44;;;;;;;5.75;2.40;;;;;;;19.82;54.39;102058.66;4840001;29;20413;-50
2022/11/02 10:24:22;;;;;;;7.55;2.50;;;;;;;19.83;54.55;102066.59;4844932;29;20057;-51
2022/11/02 10:26:49;;;;;;;8.77;2.13;;;;;;;19.83;54.36;102063.91;4843442;29;20435;-51
2022/11/02 10:29:17;;;;;;;6.43;2.70;;;;;;;19.84;54.28;102067.44;4839772;29;20469;-51
2022/11/02 10:31:44;;;;;;;12.70;2.63;;;;;;;19.84;54.35;102065.59;4859247;29;21577;-52
2022/11/02 10:34:24;;;;;;;4.82;2.13;;;;;;;19.84;54.67;102065.59;4856885;29;20464;-51
2022/11/02 10:37:40;;;;;;;6.68;2.58;;;;;;;19.86;53.82;102066.34;4859177;29;20060;-53
2022/11/02 10:40:43;;;;;;;7.85;1.80;;;;;;;19.87;54.03;102068.03;4839083;29;20045;-53
2022/11/02 10:43:41;;;;;;;8.87;2.27;;;;;;;19.88;53.84;102068.88;4802756;29;20051;-50
2022/11/02 10:46:26;;;;;;;7.20;2.47;;;;;;;19.88;53.85;102075.13;4858162;29;20504;-51
2022/11/02 10:49:27;;;;;;;7.57;2.28;;;;;;;19.89;54.41;102065.19;4857128;29;20501;-49
2022/11/02 10:51:54;;;;;;;8.00;1.92;;;;;;;19.91;54.10;102077.53;4859098;29;20350;-53
2022/11/02 10:54:20;;;;;;;5.82;2.10;;;;;;;19.92;53.88;102081.06;4860740;29;20053;-52
2022/11/02 10:56:59;;;;;;;7.68;2.65;;;;;;;19.91;54.27;102096.38;4861579;29;20105;-49
2022/11/02 10:59:25;;;;;;;9.18;1.77;;;;;;;19.93;54.30;102093.53;4856445;29;20046;-49
2022/11/02 11:01:55;;;;;;;6.45;2.33;;;;;;;19.93;53.71;102086.31;4857302;29;20051;-52
2022/11/02 11:04:29;;;;;;;6.38;2.05;;;;;;;19.94;54.00;102084.50;4856909;29;20057;-51
2022/11/02 11:07:02;;;;;;;7.10;1.73;;;;;;;19.96;53.61;102079.81;4858801;29;20314;-51
2022/11/02 11:09:37;;;;;;;4.82;2.08;;;;;;;19.96;53.79;102086.03;4860465;29;20057;-52
2022/11/02 11:12:27;;;;;;;5.85;1.77;;;;;;;19.97;53.30;102079.66;4863045;29;20117;-50
2022/11/02 11:15:03;;;;;;;5.70;1.80;;;;;;;19.99;53.57;102092.16;4859849;29;20069;-51
2022/11/02 11:17:50;;;;;;;7.78;2.20;;;;;;;20.00;53.86;102086.63;4862496;29;20403;-49
2022/11/02 11:20:38;;;;;;;5.85;1.58;;;;;;;20.02;53.76;102084.66;4858519;29;20140;-49
2022/11/02 11:23:22;;;;;;;5.43;1.67;;;;;;;20.02;53.88;102075.72;4861831;29;20124;-50
2022/11/02 11:26:05;;;;;;;8.15;2.47;;;;;;;20.03;53.81;102078.28;4863809;29;20060;-49
2022/11/02 11:28:41;;;;;;;7.57;2.00;;;;;;;20.04;53.20;102090.75;4863068;29;20053;-50
2022/11/02 11:31:16;;;;;;;6.15;2.20;;;;;;;20.04;53.43;102077.28;4848155;29;20058;-52
2022/11/02 11:33:52;;;;;;;6.22;1.50;;;;;;;20.05;53.08;102084.38;4840257;29;20051;-53
2022/11/02 11:36:29;;;;;;;8.95;1.98;;;;;;;20.06;53.60;102079.84;4845315;29;20058;-51
2022/11/02 11:39:22;;;;;;;6.32;1.77;;;;;;;20.06;53.62;102074.44;4845708;29;20465;-52
2022/11/02 11:41:49;;;;;;;5.25;1.85;;;;;;;20.07;53.59;102071.66;4848961;29;20050;-51
2022/11/02 11:44:16;;;;;;;7.80;2.10;;;;;;;20.07;52.91;102079.72;4838604;29;20054;-51
2022/11/02 11:46:46;;;;;;;9.43;1.95;;;;;;;20.08;53.44;102084.09;4842236;29;20058;-52
2022/11/02 11:49:27;;;;;;;4.85;1.50;;;;;;;20.10;53.45;102081.25;4841848;29;20053;-53
2022/11/02 11:52:19;;;;;;;6.55;1.73;;;;;;;20.11;53.11;102085.69;4839992;29;20061;-54
2022/11/02 11:55:23;;;;;;;6.10;1.63;;;;;;;20.13;53.35;102092.63;4842060;29;20045;-52
2022/11/02 11:58:21;;;;;;;5.78;2.00;;;;;;;20.12;53.24;102085.53;4840068;29;20469;-53
2022/11/02 12:01:19;;;;;;;10.27;2.78;;;;;;;20.14;53.31;102085.38;4844081;29;20337;-51